Onweer radar Meer informatie blitzortung!


Regen radar Meer informatie rain snow radar



METAR rapporten vliegvelden

   
EHRD - Rotterdam The Hague Airport - Rotterdam, Netherlands
Afstand tot: NW 20 km
Gewijzigd: 27-01-2021 07:55
Nevel, Bewolking  
Nevel, Bewolking  
   Wind: ZZW 27.8 km/h
Wind: ZZW 27.8 km/h
Temperatuur: 3°C
Voelt als: -2°C
Dauwpunt: 2°C
Vochtigheid: 93%
Barometer: 1009 hPa
Bewolking: Bewolking
Zicht: 4 km
Bewolking: Grotendeels bewolkt 500 ft,
Bewolking 600 ft
EHRD 270655Z AUTO 20015KT 160V230 4000 BR BKN005 OVC006 03/02 Q1009 REDZ TEMPO BKN004
EHAM - Amsterdam Airport Schiphol - Haarlemmermeer, Netherlands
Afstand tot: NNO 55 km
Gewijzigd: 27-01-2021 08:25
Bewolking  
Bewolking  
   Wind: ZZW 24.1 km/h
Wind: ZZW 24.1 km/h
Temperatuur: 2°C
Voelt als: -3°C
Dauwpunt: 2°C
Vochtigheid: 100%
Barometer: 1008 hPa
Bewolking: Bewolking
Zicht: 7 km
Bewolking: Grotendeels bewolkt 400 ft,
Bewolking 500 ft
EHAM 270725Z 20013KT 7000 BKN004 OVC005 02/02 Q1008 TEMPO 4000
EHKD - Vliegveld de Kooy - Den Helder, Netherlands
Afstand tot: N 123 km
Gewijzigd: 27-01-2021 08:25
Wat regen mogelijk, Motregen, Bewolking  
Wat regen mogelijk, Motregen, Bewolking  
   Wind: ZZW 29.6 km/h
Wind: ZZW 29.6 km/h
Temperatuur: 4°C
Voelt als: -1°C
Dauwpunt: 3°C
Vochtigheid: 93%
Barometer: 1007 hPa
Bewolking: Bewolking
Zicht: 3 km
Bewolking: Gedeeltelijk bewolkt 300 ft,
Bewolking 400 ft
EHKD 270725Z AUTO 21016KT 2500 R21/2400N -RADZ SCT003 OVC004 04/03 Q1007 YLO TEMPO 3000 DZRA FEW004 SCT005 BKN007
EBAW - Vliegbasis Leeuwarden - Leeuwarden, Netherlands
Afstand tot: NNO 173 km
Gewijzigd: 27-01-2021 08:20
Lichte (mot)regen, Nevel, Grotendeels bewolkt  
Lichte (mot)regen, Nevel, Grotendeels bewolkt  
   Wind: ZZW 24.1 km/h
Wind: ZZW 24.1 km/h
Temperatuur: 2°C
Voelt als: -3°C
Dauwpunt: 1°C
Vochtigheid: 93%
Barometer: 1010 hPa
Bewolking: Grotendeels bewolkt
Zicht: 4 km
Bewolking: Grotendeels bewolkt 500 ft
EBAW 270720Z 21013KT 3500 -DZ BR BKN005 02/01 Q1010 TEMPO 2500 BR
EHEH - Vliegbasis Eindhoven - Eindhoven, Netherlands
Afstand tot: ZO 65 km
Gewijzigd: 27-01-2021 08:25
Motregen, Grotendeels bewolkt  
Motregen, Grotendeels bewolkt  
   Wind: ZZW 18.5 km/h
Wind: ZZW 18.5 km/h
Temperatuur: 2°C
Voelt als: -2°C
Dauwpunt: 2°C
Vochtigheid: 100%
Barometer: 1010 hPa
Bewolking: Grotendeels bewolkt
Zicht: 5 km
Bewolking: Licht bewolkt 300 ft,
Gedeeltelijk bewolkt 500 ft,
Grotendeels bewolkt 600 ft
EHEH 270725Z AUTO 20010KT 5000 DZ FEW003 SCT005 BKN006 02/02 Q1010 YLO TEMPO 2000 DZRA SCT003 BKN005 OVC007
EHBK - Maastricht Aachen Airport - Meerssen, Netherlands
Afstand tot: ZO 128 km
Gewijzigd: 27-01-2021 08:25
Nevel, Bewolking  
Nevel, Bewolking  
   Wind: ZW 27.8 km/h
Wind: ZW 27.8 km/h
Temperatuur: 2°C
Voelt als: -4°C
Dauwpunt: 0°C
Vochtigheid: 87%
Barometer: 1011 hPa
Bewolking: Bewolking
Zicht: 5 km
Bewolking: Licht bewolkt 800 ft,
Bewolking 1100 ft
EHBK 270725Z AUTO 22015KT 5000 BR FEW008 OVC011 02/M00 Q1011 BECMG 4000 BKN008

Script ontwikkeld door  Saratoga-weather.org Aangepast voor de template door  Weerstation Leuven

U vindt ons ook hier:

UK Metoffice

Weather Underground

AWEKAS